createdAt,value
2017-10-20T00:03:35.177Z,21.7
2017-10-20T00:05:54.003Z,21.8
2017-10-20T00:06:56.056Z,21.7
2017-10-20T00:13:00.335Z,21.6
2017-10-20T00:15:20.784Z,21.7
2017-10-20T00:16:21.636Z,21.7
2017-10-20T00:19:53.595Z,21.7
2017-10-20T00:33:30.990Z,21.7
2017-10-20T00:34:32.039Z,21.6
2017-10-20T00:53:13.866Z,21.6
2017-10-20T01:01:48.636Z,21.7
2017-10-20T01:02:51.914Z,21.7
2017-10-20T01:03:54.066Z,21.8
2017-10-20T01:09:58.347Z,21.7
2017-10-20T01:19:49.488Z,21.6
2017-10-20T01:23:23.064Z,21.7
2017-10-20T01:24:24.119Z,21.6
2017-10-20T01:29:11.630Z,21.8
2017-10-20T01:31:28.236Z,21.7
2017-10-20T01:32:30.286Z,21.6
2017-10-20T01:36:02.854Z,21.7
2017-10-20T01:37:03.910Z,21.6
2017-10-20T01:48:13.030Z,21.6
2017-10-20T01:53:04.179Z,21.7
2017-10-20T01:54:05.841Z,21.6
2017-10-20T01:57:39.197Z,21.7
2017-10-20T01:58:40.249Z,21.6
2017-10-20T02:04:45.522Z,21.6
2017-10-20T02:07:03.939Z,21.6
2017-10-20T02:10:35.691Z,21.7
2017-10-20T02:11:39.583Z,21.7
2017-10-20T02:12:42.831Z,21.6
2017-10-20T02:16:18.026Z,21.6
2017-10-20T02:19:49.986Z,21.6
2017-10-20T02:22:33.915Z,21.7
2017-10-20T02:26:09.516Z,21.7
2017-10-20T02:31:43.523Z,21.6
2017-10-20T02:35:50.806Z,21.6
2017-10-20T02:39:23.370Z,21.5
2017-10-20T02:42:56.740Z,21.6
2017-10-20T02:45:14.352Z,21.6
2017-10-20T02:47:48.728Z,21.6
2017-10-20T02:50:04.930Z,21.6
2017-10-20T02:53:38.696Z,21.6
2017-10-20T02:54:39.346Z,21.6
2017-10-20T02:56:55.766Z,21.6
2017-10-20T02:59:14.368Z,21.6
2017-10-20T03:00:15.422Z,21.6
2017-10-20T03:05:04.755Z,21.6
2017-10-20T03:13:41.347Z,21.6
2017-10-20T03:16:00.168Z,21.7
2017-10-20T03:17:07.247Z,21.6
2017-10-20T03:21:00.785Z,21.7
2017-10-20T03:29:35.557Z,21.5
2017-10-20T03:30:36.208Z,21.6
2017-10-20T03:34:09.985Z,21.5
2017-10-20T03:42:45.177Z,21.6
2017-10-20T03:50:06.839Z,21.5
2017-10-20T03:52:24.632Z,21.5
2017-10-20T03:53:25.483Z,21.5
2017-10-20T03:54:27.842Z,21.6
2017-10-20T03:55:29.505Z,21.5
2017-10-20T03:57:47.106Z,21.5
2017-10-20T04:00:06.315Z,21.5
2017-10-20T04:14:05.568Z,21.5
2017-10-20T04:27:05.834Z,21.5
2017-10-20T04:35:40.612Z,21.6
2017-10-20T04:36:42.663Z,21.5
2017-10-20T04:38:59.678Z,21.5
2017-10-20T04:45:03.537Z,21.5
2017-10-20T04:46:04.794Z,21.5
2017-10-20T04:47:08.829Z,21.5
2017-10-20T04:54:29.672Z,21.5
2017-10-20T05:04:50.901Z,21.5
2017-10-20T05:07:08.926Z,21.6
2017-10-20T05:08:10.568Z,21.6
2017-10-20T05:10:28.383Z,21.6
2017-10-20T05:13:02.599Z,21.6
2017-10-20T05:17:50.921Z,21.7
2017-10-20T05:18:51.772Z,21.7
2017-10-20T05:24:55.446Z,21.6
2017-10-20T05:27:15.689Z,21.7
2017-10-20T05:28:16.745Z,21.6
2017-10-20T05:34:19.800Z,21.7
2017-10-20T05:35:20.858Z,21.7
2017-10-20T05:36:52.157Z,21.6
2017-10-20T05:37:53.819Z,21.6
2017-10-20T05:40:11.383Z,21.6
2017-10-20T05:43:56.235Z,21.6
2017-10-20T05:46:13.450Z,21.6
2017-10-20T05:53:46.220Z,21.6
2017-10-20T05:54:47.829Z,21.6
2017-10-20T06:00:51.501Z,21.7
2017-10-20T06:03:09.018Z,21.7
2017-10-20T06:04:09.970Z,21.7
2017-10-20T06:06:28.438Z,21.7
2017-10-20T06:07:29.697Z,21.7
2017-10-20T06:09:47.502Z,21.6
2017-10-20T06:12:04.312Z,21.6
2017-10-20T06:24:52.594Z,21.6
2017-10-20T06:26:21.629Z,21.7
2017-10-20T06:27:22.279Z,21.7
2017-10-20T06:28:22.930Z,21.8
2017-10-20T06:29:23.577Z,21.6
2017-10-20T06:30:24.225Z,21.7
2017-10-20T06:31:24.873Z,21.7
2017-10-20T06:32:25.528Z,21.5
2017-10-20T06:33:26.164Z,20.9
2017-10-20T06:34:26.911Z,20.5
2017-10-20T06:35:27.558Z,19.8
2017-10-20T06:36:28.202Z,19.4
2017-10-20T06:37:28.949Z,19.2
2017-10-20T06:38:29.595Z,19.1
2017-10-20T06:39:30.248Z,19.0
2017-10-20T06:40:30.888Z,18.9
2017-10-20T06:41:31.533Z,19.0
2017-10-20T06:42:32.428Z,18.8
2017-10-20T06:43:33.074Z,18.8
2017-10-20T06:44:33.719Z,18.8
2017-10-20T06:45:34.363Z,18.8
2017-10-20T06:46:35.008Z,18.7
2017-10-20T06:47:35.658Z,18.7
2017-10-20T06:48:36.298Z,18.7
2017-10-20T06:49:36.942Z,18.7
2017-10-20T06:50:37.737Z,18.7
2017-10-20T06:51:38.528Z,18.8
2017-10-20T06:52:39.522Z,18.7
2017-10-20T06:53:40.167Z,18.7
2017-10-20T06:54:40.811Z,18.7
2017-10-20T06:55:41.454Z,18.7
2017-10-20T06:56:42.099Z,18.7
2017-10-20T06:57:42.894Z,18.6
2017-10-20T06:58:43.538Z,18.7
2017-10-20T06:59:44.180Z,18.6
2017-10-20T07:00:45.075Z,18.7
2017-10-20T07:01:54.235Z,18.8
2017-10-20T07:02:55.029Z,18.9
2017-10-20T07:03:55.772Z,19.2
2017-10-20T07:04:56.415Z,19.6
2017-10-20T07:05:57.057Z,19.8
2017-10-20T07:06:57.700Z,20.2
2017-10-20T07:07:58.442Z,20.4
2017-10-20T07:08:59.183Z,20.7
2017-10-20T07:09:59.827Z,20.8
2017-10-20T07:11:00.473Z,21.0
2017-10-20T07:12:01.195Z,21.2
2017-10-20T07:13:01.859Z,21.3
2017-10-20T07:14:02.603Z,21.4
2017-10-20T07:15:03.247Z,21.5
2017-10-20T07:16:03.889Z,21.5
2017-10-20T07:17:04.533Z,21.6
2017-10-20T07:18:05.177Z,21.6
2017-10-20T07:19:05.820Z,21.7
2017-10-20T07:20:06.465Z,21.8
2017-10-20T07:21:07.109Z,21.9
2017-10-20T07:22:07.753Z,21.8
2017-10-20T07:23:08.399Z,21.9
2017-10-20T07:24:09.044Z,22.0
2017-10-20T07:25:09.790Z,22.1
2017-10-20T07:26:10.534Z,22.1
2017-10-20T07:27:11.185Z,22.1
2017-10-20T07:28:11.822Z,22.1
2017-10-20T07:29:12.467Z,22.2
2017-10-20T07:30:13.112Z,22.1
2017-10-20T07:31:13.764Z,22.0
2017-10-20T07:32:14.456Z,22.1
2017-10-20T07:33:15.097Z,22.1
2017-10-20T07:34:15.744Z,22.1
2017-10-20T07:35:16.389Z,22.1
2017-10-20T07:36:17.037Z,22.2
2017-10-20T07:37:17.690Z,22.3
2017-10-20T07:38:18.327Z,22.3
2017-10-20T07:39:19.074Z,22.3
2017-10-20T07:40:19.721Z,22.2
2017-10-20T07:41:20.368Z,22.3
2017-10-20T07:42:21.216Z,22.3
2017-10-20T07:43:21.862Z,22.4
2017-10-20T07:44:22.507Z,22.3
2017-10-20T07:45:23.153Z,22.4
2017-10-20T07:46:23.799Z,22.5
2017-10-20T07:47:24.445Z,22.4
2017-10-20T07:48:25.090Z,22.4
2017-10-20T07:49:25.835Z,22.5
2017-10-20T07:50:26.731Z,22.5
2017-10-20T07:51:27.379Z,22.4
2017-10-20T07:52:28.025Z,22.5
2017-10-20T07:53:28.773Z,22.4
2017-10-20T07:54:29.417Z,22.5
2017-10-20T07:55:30.062Z,22.4
2017-10-20T07:56:30.708Z,22.3
2017-10-20T07:57:31.353Z,22.5
2017-10-20T07:58:31.998Z,22.5
2017-10-20T07:59:32.794Z,22.4
2017-10-20T08:00:33.691Z,22.4
2017-10-20T08:01:34.338Z,22.5
2017-10-20T08:02:35.083Z,22.4
2017-10-20T08:03:35.930Z,22.3
2017-10-20T08:04:36.577Z,22.5
2017-10-20T08:05:37.221Z,22.4
2017-10-20T08:06:37.867Z,22.4
2017-10-20T08:07:38.813Z,22.4
2017-10-20T08:08:39.457Z,22.4
2017-10-20T08:09:40.103Z,22.4
2017-10-20T08:10:40.748Z,22.4
2017-10-20T08:11:41.645Z,22.4
2017-10-20T08:12:42.295Z,22.4
2017-10-20T08:13:43.339Z,22.5
2017-10-20T08:14:43.983Z,22.5
2017-10-20T08:15:44.632Z,22.5
2017-10-20T08:16:45.277Z,22.4
2017-10-20T08:17:45.923Z,22.5
2017-10-20T08:18:46.567Z,22.5
2017-10-20T08:19:47.215Z,22.5
2017-10-20T08:20:47.860Z,22.5
2017-10-20T08:21:48.505Z,22.5
2017-10-20T08:22:49.401Z,22.5
2017-10-20T08:23:50.150Z,22.5
2017-10-20T08:24:50.798Z,22.6
2017-10-20T08:25:51.445Z,22.5
2017-10-20T08:26:52.095Z,22.5
2017-10-20T08:27:52.738Z,22.4
2017-10-20T08:28:53.384Z,22.4
2017-10-20T08:29:54.029Z,22.5
2017-10-20T08:30:54.680Z,22.5
2017-10-20T08:31:55.325Z,22.5
2017-10-20T08:32:56.068Z,22.6
2017-10-20T08:33:56.714Z,22.5
2017-10-20T08:34:57.359Z,22.5
2017-10-20T08:35:58.007Z,22.5
2017-10-20T08:36:58.658Z,22.5
2017-10-20T08:37:59.299Z,22.5
2017-10-20T08:38:59.943Z,22.6
2017-10-20T08:40:00.590Z,22.6
2017-10-20T08:41:01.435Z,22.6
2017-10-20T08:42:02.081Z,22.5
2017-10-20T08:43:02.725Z,22.6
2017-10-20T08:44:03.370Z,22.6
2017-10-20T08:45:04.021Z,22.6
2017-10-20T08:46:04.663Z,22.6
2017-10-20T08:47:05.412Z,22.6
2017-10-20T08:48:06.158Z,22.7
2017-10-20T08:49:06.804Z,22.6
2017-10-20T08:50:07.549Z,22.7
2017-10-20T08:51:08.347Z,22.6
2017-10-20T08:52:09.290Z,22.7
2017-10-20T08:53:10.337Z,22.6
2017-10-20T08:54:10.982Z,22.7
2017-10-20T08:55:11.628Z,22.6
2017-10-20T08:56:12.278Z,22.7
2017-10-20T08:57:13.172Z,22.6
2017-10-20T08:58:13.816Z,22.7
2017-10-20T08:59:14.465Z,22.7
2017-10-20T09:00:15.206Z,22.6
2017-10-20T09:01:16.101Z,22.6
2017-10-20T09:02:16.998Z,22.7
2017-10-20T09:03:18.096Z,22.7
2017-10-20T09:04:18.850Z,22.5
2017-10-20T09:05:19.597Z,22.7
